createdAt,value
2023-01-17T00:02:19.102Z,99398.13
2023-01-17T00:05:04.795Z,99398.06
2023-01-17T00:07:50.536Z,99398.97
2023-01-17T00:10:23.091Z,99398.94
2023-01-17T00:13:00.972Z,99410.03
2023-01-17T00:15:29.528Z,99419.44
2023-01-17T00:17:56.797Z,99428.81
2023-01-17T00:20:47.620Z,99422.84
2023-01-17T00:23:38.739Z,99423.69
2023-01-17T00:26:10.614Z,99427.09
2023-01-17T00:28:39.224Z,99425.41
2023-01-17T00:31:07.933Z,99419.41
2023-01-17T00:33:35.398Z,99420.25
2023-01-17T00:36:03.559Z,99412.56
2023-01-17T00:38:32.858Z,99404.06
2023-01-17T00:41:10.876Z,99413.44
2023-01-17T00:43:56.839Z,99422.84
2023-01-17T00:46:42.506Z,99416.00
2023-01-17T00:49:28.359Z,99421.94
2023-01-17T00:52:13.755Z,99417.72
2023-01-17T00:54:59.416Z,99414.28
2023-01-17T00:57:44.759Z,99410.03
2023-01-17T01:00:30.579Z,99409.19
2023-01-17T01:03:15.853Z,99404.91
2023-01-17T01:06:01.549Z,99400.66
2023-01-17T01:08:48.798Z,99401.53
2023-01-17T01:11:37.483Z,99401.50
2023-01-17T01:14:23.840Z,99397.25
2023-01-17T01:17:09.291Z,99404.91
2023-01-17T01:19:54.373Z,99404.09
2023-01-17T01:22:39.463Z,99407.47
2023-01-17T01:25:25.216Z,99404.06
2023-01-17T01:28:11.343Z,99411.75
2023-01-17T01:30:56.616Z,99420.28
2023-01-17T01:33:23.332Z,99428.84
2023-01-17T01:35:53.726Z,99435.66
2023-01-17T01:38:23.472Z,99437.34
2023-01-17T01:40:52.945Z,99432.25
2023-01-17T01:43:38.100Z,99430.53
2023-01-17T01:46:05.958Z,99424.56
2023-01-17T01:48:37.691Z,99420.28
2023-01-17T01:51:10.119Z,99417.75
2023-01-17T01:53:40.898Z,99412.59
2023-01-17T01:56:11.564Z,99407.47
2023-01-17T01:58:40.247Z,99395.56
2023-01-17T02:01:08.627Z,99398.97
2023-01-17T02:03:37.802Z,99403.22
2023-01-17T02:06:22.933Z,99398.13
2023-01-17T02:08:49.739Z,99398.97
2023-01-17T02:11:16.726Z,99399.81
2023-01-17T02:13:43.748Z,99398.13
2023-01-17T02:16:19.356Z,99407.50
2023-01-17T02:18:51.824Z,99409.19
2023-01-17T02:21:27.281Z,99403.25
2023-01-17T02:24:15.615Z,99395.53
2023-01-17T02:26:52.817Z,99387.88
2023-01-17T02:29:31.741Z,99390.41
2023-01-17T02:32:10.741Z,99389.56
2023-01-17T02:34:46.549Z,99390.41
2023-01-17T02:37:16.021Z,99391.28
2023-01-17T02:39:59.751Z,99376.78
2023-01-17T02:42:34.089Z,99373.34
2023-01-17T02:45:02.699Z,99364.81
2023-01-17T02:47:31.742Z,99364.78
2023-01-17T02:50:07.612Z,99357.97
2023-01-17T02:52:49.562Z,99356.25
2023-01-17T02:55:29.755Z,99349.47
2023-01-17T02:58:08.355Z,99346.03
2023-01-17T03:00:44.368Z,99344.31
2023-01-17T03:03:35.274Z,99351.13
2023-01-17T03:06:23.037Z,99342.56
2023-01-17T03:08:51.715Z,99340.88
2023-01-17T03:11:18.602Z,99343.44
2023-01-17T03:13:45.416Z,99342.59
2023-01-17T03:16:17.954Z,99341.72
2023-01-17T03:18:45.039Z,99346.84
2023-01-17T03:21:11.735Z,99344.31
2023-01-17T03:23:38.553Z,99346.00
2023-01-17T03:26:05.505Z,99345.16
2023-01-17T03:28:32.477Z,99333.22
2023-01-17T03:30:59.285Z,99333.22
2023-01-17T03:33:26.534Z,99323.84
2023-01-17T03:35:54.664Z,99313.59
2023-01-17T03:38:21.431Z,99318.72
2023-01-17T03:40:48.181Z,99302.47
2023-01-17T03:43:15.016Z,99299.03
2023-01-17T03:45:41.830Z,99297.31
2023-01-17T03:48:08.692Z,99286.25
2023-01-17T03:50:35.560Z,99278.56
2023-01-17T03:53:02.324Z,99285.38
2023-01-17T03:55:29.039Z,99270.03
2023-01-17T03:57:55.752Z,99276.00
2023-01-17T04:00:22.716Z,99269.19
2023-01-17T04:02:49.638Z,99265.81
2023-01-17T04:05:17.124Z,99242.78
2023-01-17T04:07:44.221Z,99235.09
2023-01-17T04:14:29.740Z,99222.34
2023-01-17T04:28:01.327Z,99193.44
2023-01-17T04:34:25.517Z,99178.97
2023-01-17T04:50:23.455Z,99146.66
2023-01-17T04:52:57.749Z,99143.19
2023-01-17T04:58:44.596Z,99122.69
2023-01-17T05:05:47.097Z,99119.19
2023-01-17T05:14:44.218Z,99081.72
2023-01-17T05:17:36.525Z,99089.44
2023-01-17T05:20:15.062Z,99086.81
2023-01-17T05:25:49.511Z,99092.00
2023-01-17T05:28:33.490Z,99093.75
2023-01-17T05:47:13.867Z,99084.34
2023-01-17T05:49:45.106Z,99093.72
2023-01-17T05:55:59.291Z,99096.25
2023-01-17T05:58:55.538Z,99082.63
2023-01-17T06:01:59.541Z,99097.94
2023-01-17T06:04:50.576Z,99097.97
2023-01-17T06:07:48.119Z,99098.91
2023-01-17T06:11:00.758Z,99098.09
2023-01-17T06:17:23.233Z,99095.59
2023-01-17T06:21:16.858Z,99096.47
2023-01-17T06:24:22.617Z,99098.16
2023-01-17T06:34:11.371Z,99099.03
2023-01-17T06:37:07.647Z,99096.50
2023-01-17T06:46:54.424Z,99061.56
2023-01-17T06:57:21.515Z,99040.28
2023-01-17T07:00:22.933Z,99019.88
2023-01-17T07:03:23.447Z,99011.38
2023-01-17T07:10:15.968Z,98987.53
2023-01-17T07:16:21.120Z,98953.47
2023-01-17T07:23:10.211Z,98934.75
2023-01-17T07:29:33.289Z,98906.69
2023-01-17T07:33:05.939Z,98911.81
2023-01-17T07:36:14.725Z,98899.88
2023-01-17T07:39:06.350Z,98900.72
2023-01-17T07:41:53.060Z,98894.78
2023-01-17T07:44:43.773Z,98904.16
2023-01-17T07:47:48.388Z,98906.72
2023-01-17T07:50:33.322Z,98899.88
2023-01-17T08:08:11.480Z,98891.50
2023-01-17T08:10:48.403Z,98900.88
2023-01-17T08:13:17.039Z,98883.00
2023-01-17T08:16:06.738Z,98872.81
2023-01-17T08:18:51.045Z,98865.16
2023-01-17T08:21:25.309Z,98847.31
2023-01-17T08:27:20.554Z,98803.94
2023-01-17T08:29:50.172Z,98803.06
2023-01-17T08:32:44.249Z,98800.47
2023-01-17T08:35:42.719Z,98791.94
2023-01-17T08:38:40.710Z,98780.88
2023-01-17T08:41:26.455Z,98760.50
2023-01-17T08:44:14.234Z,98758.75
2023-01-17T08:47:31.191Z,98768.88
2023-01-17T08:50:38.231Z,98778.22
2023-01-17T08:53:36.091Z,98785.91
2023-01-17T08:56:17.674Z,98777.44
2023-01-17T08:59:18.940Z,98765.53
2023-01-17T09:02:10.406Z,98761.25
2023-01-17T09:05:05.659Z,98762.94
2023-01-17T09:08:17.338Z,98745.91
2023-01-17T09:11:28.296Z,98733.09
2023-01-17T09:14:04.558Z,98722.06
2023-01-17T09:17:00.778Z,98721.22
2023-01-17T19:20:47.408Z,98664.31
2023-01-17T19:23:14.257Z,98671.97
2023-01-17T19:25:41.060Z,98677.09
2023-01-17T19:28:08.467Z,98677.97
2023-01-17T19:30:39.079Z,98672.94
2023-01-17T19:33:06.466Z,98679.69
2023-01-17T19:35:33.345Z,98680.53
2023-01-17T19:38:00.416Z,98684.03
2023-01-17T19:40:27.374Z,98685.75
2023-01-17T19:42:56.277Z,98688.28
2023-01-17T19:45:23.138Z,98691.75
2023-01-17T19:47:50.046Z,98693.47
2023-01-17T19:50:18.765Z,98696.81
2023-01-17T19:52:45.649Z,98709.56
2023-01-17T19:55:12.592Z,98703.59
2023-01-17T19:57:40.638Z,98703.63
2023-01-17T20:00:12.441Z,98714.66
2023-01-17T20:02:40.015Z,98703.63
2023-01-17T20:05:07.446Z,98712.97
2023-01-17T20:07:35.064Z,98716.38
2023-01-17T20:10:02.092Z,98715.50
2023-01-17T20:12:29.070Z,98720.56
2023-01-17T20:14:56.019Z,98717.16
2023-01-17T20:17:23.083Z,98717.13
2023-01-17T20:19:52.320Z,98721.34
2023-01-17T20:22:19.451Z,98717.94
2023-01-17T20:24:47.171Z,98723.88
2023-01-17T20:27:14.165Z,98717.91
2023-01-17T20:29:41.184Z,98723.84
2023-01-17T20:32:08.160Z,98717.94
2023-01-17T20:34:35.839Z,98723.94
2023-01-17T20:37:03.070Z,98734.09
2023-01-17T20:39:30.569Z,98736.69
2023-01-17T20:41:57.799Z,98741.81
2023-01-17T20:44:25.667Z,98762.16
2023-01-17T20:46:52.712Z,98765.59
2023-01-17T20:49:20.094Z,98763.03
2023-01-17T20:51:47.436Z,98764.72
2023-01-17T20:54:17.327Z,98751.16
2023-01-17T20:56:47.444Z,98756.22
2023-01-17T20:59:20.102Z,98761.34
2023-01-17T21:01:48.127Z,98767.31
2023-01-17T21:04:17.220Z,98753.72
2023-01-17T21:06:46.926Z,98746.91
2023-01-17T21:09:15.624Z,98745.22
2023-01-17T21:11:42.861Z,98751.13
2023-01-17T21:14:09.989Z,98758.75
2023-01-17T21:16:36.972Z,98755.50
2023-01-17T21:19:06.809Z,98754.75
2023-01-17T21:21:33.724Z,98751.31
2023-01-17T21:24:00.965Z,98758.09
2023-01-17T21:26:30.652Z,98761.50
2023-01-17T21:29:00.169Z,98770.84
2023-01-17T21:31:33.576Z,98769.19
2023-01-17T21:34:05.910Z,98774.31
2023-01-17T21:36:36.739Z,98770.91
2023-01-17T21:39:06.909Z,98770.06
2023-01-17T21:41:40.411Z,98768.31
2023-01-17T21:44:19.600Z,98757.25
2023-01-17T21:46:47.568Z,98760.63
2023-01-17T21:49:14.740Z,98757.22
2023-01-17T21:51:53.119Z,98763.16
2023-01-17T21:54:40.918Z,98767.38
2023-01-17T21:57:27.250Z,98775.09
2023-01-17T21:59:54.432Z,98777.66
2023-01-17T22:02:26.692Z,98770.81
2023-01-17T22:04:56.400Z,98761.44
2023-01-17T22:07:29.327Z,98761.47
2023-01-17T22:09:58.870Z,98766.56
2023-01-17T22:12:25.899Z,98763.97
2023-01-17T22:14:53.610Z,98771.63
2023-01-17T22:17:22.336Z,98773.34
2023-01-17T22:19:53.432Z,98772.50
2023-01-17T22:22:23.168Z,98776.75
2023-01-17T22:24:52.676Z,98781.84
2023-01-17T22:27:20.634Z,98775.91
2023-01-17T22:29:47.536Z,98760.59
2023-01-17T22:32:14.330Z,98763.16
2023-01-17T22:34:41.183Z,98762.34
2023-01-17T22:37:11.237Z,98765.75
2023-01-17T22:39:40.638Z,98764.91
2023-01-17T22:42:07.835Z,98780.19
2023-01-17T22:44:35.066Z,98788.69
2023-01-17T22:47:02.041Z,98798.09
2023-01-17T22:49:28.743Z,98798.09
2023-01-17T22:51:55.530Z,98795.53
2023-01-17T22:54:23.017Z,98793.81
2023-01-17T22:56:49.842Z,98788.69
2023-01-17T22:59:16.595Z,98785.31
2023-01-17T23:01:43.577Z,98791.25
2023-01-17T23:04:13.784Z,98784.44
2023-01-17T23:06:41.674Z,98787.00
2023-01-17T23:09:11.558Z,98781.91
2023-01-17T23:11:44.192Z,98790.41
2023-01-17T23:14:12.939Z,98784.47
2023-01-17T23:17:00.674Z,98798.88
2023-01-17T23:19:29.922Z,98802.31
2023-01-17T23:22:16.808Z,98807.41
2023-01-17T23:24:57.786Z,98807.41
2023-01-17T23:27:50.270Z,98808.25
2023-01-17T23:30:17.457Z,98814.22
2023-01-17T23:32:50.679Z,98815.03
2023-01-17T23:35:19.598Z,98809.16
2023-01-17T23:38:05.303Z,98815.97
2023-01-17T23:40:34.049Z,98812.56
2023-01-17T23:43:19.555Z,98809.16
2023-01-17T23:45:46.783Z,98810.03
2023-01-17T23:48:13.652Z,98817.66
2023-01-17T23:50:42.583Z,98820.22
2023-01-17T23:53:09.975Z,98826.16
2023-01-17T23:55:39.342Z,98825.31
2023-01-17T23:58:07.639Z,98828.72
